Carlsbad, California
Current Conditions -  °F | °C
As of 4:31 AM on Thursday 25 Dec 2014 (Local Time) from KOKB Reporting Station
Overcast Overcast  
Wind Chill: 60°   Ceiling: 4000
Heat Index: 60°   Visibility: 10mi
Dew Point: 52°   Wind: 9mph
Humidity: 75%   Direction: 290°WNW
Pressure: 29.78"   Gusts: NA
Location:  33.17°N, 117.33°W
Report Text: KOKB 251231Z AUTO 29008KT 10SM FEW021 BKN040 OVC055 16/11 A2978 RMK AO2 T01560111
Loading
Personal Weather Stations






























Interactive Weather Map New forecast layout! Learn more

10-Day Weather Forecast

Advertisements
Track Severe Weather on mobile